Atlasburg, Pennsylvania
Current Conditions -  °F | °C
As of 4:51 AM on Thursday 29 Jan 2015 (Local Time) from KPIT Reporting Station
Overcast Overcast  
Wind Chill: 11°   Ceiling: 13000
Heat Index: 20°   Visibility: 10mi
Dew Point: 13°   Wind: 7mph
Humidity: 74%   Direction: 120°ESE
Pressure: 30.12"   Gusts: NA
Location:  40.34°N, 80.38°W
Report Text: KPIT 290951Z 12006KT 10SM SCT110 BKN130 OVC180 M07/M11 A3012 RMK AO2 SLP227 T10671106
Loading
Personal Weather Stations






























Interactive Weather Map New forecast layout! Learn more

10-Day Weather Forecast

Advertisements
Track Severe Weather on mobile